Time;durP1;ratioP1;P1;durP2;ratioP2;P2;SDS_P1;SDS_P2;PMS_P1;PMS_P2;Temp;Humidity;BMP_temperature;BMP_pressure;BME280_temperature;BME280_humidity;BME280_pressure;Samples;Min_cycle;Max_cycle;Signal;HPM_P1;HPM_P2
2021/11/20 00:00:33;;;;;;;91.80;85.75;;;;;;;;;;4997644;28;20033;-74
2021/11/20 00:03:00;;;;;;;90.43;84.45;;;;;;;;;;4992090;28;20026;-74
2021/11/20 00:05:33;;;;;;;93.47;87.20;;;;;;;;;;4975627;28;20423;-74
2021/11/20 00:08:00;;;;;;;99.35;92.78;;;;;;;;;;4997002;28;20517;-74
2021/11/20 00:10:27;;;;;;;95.32;89.13;;;;;;;;;;4997434;28;20042;-74
2021/11/20 00:12:54;;;;;;;93.13;87.30;;;;;;;;;;4992976;28;20403;-74
2021/11/20 00:15:22;;;;;;;97.53;91.15;;;;;;;;;;4993484;28;20097;-75
2021/11/20 00:17:48;;;;;;;95.40;88.97;;;;;;;;;;4974388;28;20053;-74
2021/11/20 00:20:16;;;;;;;95.18;89.07;;;;;;;;;;4993586;28;20045;-74
2021/11/20 00:22:43;;;;;;;98.60;92.50;;;;;;;;;;4992454;28;20105;-74
2021/11/20 00:25:23;;;;;;;104.10;97.50;;;;;;;;;;4993051;28;20443;-74
2021/11/20 00:27:49;;;;;;;99.78;93.38;;;;;;;;;;4991865;28;20026;-74
2021/11/20 00:30:23;;;;;;;101.72;95.13;;;;;;;;;;5000240;28;20026;-74
2021/11/20 00:32:51;;;;;;;98.55;92.15;;;;;;;;;;4991254;28;20049;-74
2021/11/20 00:35:18;;;;;;;95.85;89.75;;;;;;;;;;4990680;28;20058;-74
2021/11/20 00:37:45;;;;;;;99.07;92.80;;;;;;;;;;4991261;28;20224;-73
2021/11/20 00:40:14;;;;;;;94.95;88.75;;;;;;;;;;4991591;28;20035;-73
2021/11/20 00:42:40;;;;;;;98.78;92.57;;;;;;;;;;4978973;28;20070;-73
2021/11/20 00:45:06;;;;;;;108.15;101.43;;;;;;;;;;4989563;28;20088;-74
2021/11/20 00:47:32;;;;;;;102.05;95.18;;;;;;;;;;4995794;28;20037;-74
2021/11/20 00:49:59;;;;;;;102.05;95.82;;;;;;;;;;4992070;28;20034;-74
2021/11/20 00:52:25;;;;;;;106.75;100.05;;;;;;;;;;4996731;28;20076;-74
2021/11/20 00:54:51;;;;;;;104.45;97.85;;;;;;;;;;4987373;28;20117;-74
2021/11/20 00:57:18;;;;;;;106.55;99.82;;;;;;;;;;4989293;28;20026;-74
2021/11/20 00:59:44;;;;;;;106.30;99.60;;;;;;;;;;4990231;28;20019;-74
2021/11/20 01:02:10;;;;;;;110.57;103.65;;;;;;;;;;4996499;28;20085;-74
2021/11/20 01:04:37;;;;;;;109.07;101.97;;;;;;;;;;4980866;28;20072;-74
2021/11/20 01:07:04;;;;;;;105.22;98.43;;;;;;;;;;4992104;28;20447;-73
2021/11/20 01:09:32;;;;;;;104.90;98.32;;;;;;;;;;4984339;28;20569;-74
2021/11/20 01:12:03;;;;;;;103.95;97.32;;;;;;;;;;4990988;28;20039;-74
2021/11/20 01:14:29;;;;;;;109.93;102.47;;;;;;;;;;4986393;28;20484;-74
2021/11/20 01:16:56;;;;;;;109.28;101.97;;;;;;;;;;4991031;28;20022;-74
2021/11/20 01:19:24;;;;;;;110.80;103.43;;;;;;;;;;4993666;28;20525;-74
2021/11/20 01:21:51;;;;;;;114.95;106.88;;;;;;;;;;4989018;28;20026;-75
2021/11/20 01:24:17;;;;;;;104.93;97.25;;;;;;;;;;4975016;28;20034;-74
2021/11/20 01:26:44;;;;;;;110.28;102.85;;;;;;;;;;4991953;28;20124;-74
2021/11/20 01:29:12;;;;;;;111.80;103.88;;;;;;;;;;4989502;28;20114;-74
2021/11/20 01:31:39;;;;;;;115.45;107.40;;;;;;;;;;4994282;28;20026;-74
2021/11/20 01:34:06;;;;;;;112.32;104.85;;;;;;;;;;4992022;28;20648;-74
2021/11/20 01:36:34;;;;;;;115.55;107.97;;;;;;;;;;4981536;28;20026;-73
2021/11/20 01:39:01;;;;;;;111.18;103.95;;;;;;;;;;5005372;28;20026;-74
2021/11/20 01:41:30;;;;;;;107.88;100.85;;;;;;;;;;4989550;28;20101;-74
2021/11/20 01:43:57;;;;;;;105.65;98.97;;;;;;;;;;4987894;28;20164;-74
2021/11/20 01:46:25;;;;;;;106.28;99.57;;;;;;;;;;4992129;28;20101;-74
2021/11/20 01:48:51;;;;;;;102.07;95.82;;;;;;;;;;4979813;28;20439;-74
2021/11/20 01:51:19;;;;;;;104.50;98.38;;;;;;;;;;4993929;28;20050;-74
2021/11/20 01:53:51;;;;;;;104.85;99.05;;;;;;;;;;4992076;28;20030;-74
2021/11/20 01:56:29;;;;;;;107.63;101.32;;;;;;;;;;4991226;28;20027;-73
2021/11/20 01:59:08;;;;;;;106.57;100.22;;;;;;;;;;4988922;28;20026;-74
2021/11/20 02:01:43;;;;;;;103.93;97.57;;;;;;;;;;4991100;28;20451;-73
2021/11/20 02:04:27;;;;;;;102.55;96.00;;;;;;;;;;4974001;28;20080;-74
2021/11/20 02:06:53;;;;;;;101.88;95.65;;;;;;;;;;4973699;28;20041;-73
2021/11/20 02:09:26;;;;;;;105.43;98.70;;;;;;;;;;4995896;28;20034;-74
2021/11/20 02:11:57;;;;;;;104.82;98.32;;;;;;;;;;4992577;28;20510;-73
2021/11/20 02:14:24;;;;;;;105.57;99.38;;;;;;;;;;4984455;28;20038;-73
2021/11/20 02:16:50;;;;;;;109.22;102.63;;;;;;;;;;4977182;28;20112;-73
2021/11/20 02:19:19;;;;;;;105.10;98.70;;;;;;;;;;4978347;28;20591;-73
2021/11/20 02:21:51;;;;;;;107.25;100.60;;;;;;;;;;4960002;28;20034;-73
2021/11/20 02:24:17;;;;;;;106.05;99.55;;;;;;;;;;4977413;28;20041;-73
2021/11/20 02:26:43;;;;;;;105.43;98.85;;;;;;;;;;4986056;28;20038;-74
2021/11/20 02:29:11;;;;;;;101.40;95.30;;;;;;;;;;4974836;28;20149;-74
2021/11/20 02:31:39;;;;;;;104.18;97.78;;;;;;;;;;4992915;28;20030;-74
2021/11/20 02:34:05;;;;;;;103.35;96.75;;;;;;;;;;4995955;28;20049;-75
2021/11/20 02:36:32;;;;;;;109.65;102.38;;;;;;;;;;4991519;28;20027;-74
2021/11/20 02:39:04;;;;;;;110.13;102.97;;;;;;;;;;4989256;28;20062;-74
2021/11/20 02:41:31;;;;;;;109.60;102.07;;;;;;;;;;4974131;28;20053;-74
2021/11/20 02:44:00;;;;;;;113.47;106.22;;;;;;;;;;4994797;28;20030;-74
2021/11/20 02:46:28;;;;;;;110.47;103.43;;;;;;;;;;4990954;28;20109;-74
2021/11/20 02:48:54;;;;;;;113.88;106.72;;;;;;;;;;4988443;28;20046;-75
2021/11/20 02:51:31;;;;;;;111.32;104.20;;;;;;;;;;4992791;28;20030;-74
2021/11/20 02:54:05;;;;;;;114.13;106.47;;;;;;;;;;4998034;28;20026;-74
2021/11/20 02:56:34;;;;;;;111.45;103.88;;;;;;;;;;4993955;28;20026;-74
2021/11/20 02:59:00;;;;;;;112.05;104.57;;;;;;;;;;4997545;28;20018;-74
2021/11/20 03:01:28;;;;;;;111.82;104.50;;;;;;;;;;4975535;28;20494;-74
2021/11/20 03:03:54;;;;;;;111.05;103.95;;;;;;;;;;4994688;28;20037;-74
2021/11/20 03:06:21;;;;;;;109.60;102.75;;;;;;;;;;4995409;28;20038;-75
2021/11/20 03:08:47;;;;;;;105.75;99.25;;;;;;;;;;4992506;28;20440;-74
2021/11/20 03:11:14;;;;;;;103.72;97.43;;;;;;;;;;5005940;28;20023;-75
2021/11/20 03:13:40;;;;;;;108.22;101.53;;;;;;;;;;4985665;28;20031;-74
2021/11/20 03:16:06;;;;;;;106.55;100.03;;;;;;;;;;4994004;28;20095;-74
2021/11/20 03:18:32;;;;;;;105.15;98.72;;;;;;;;;;4995515;28;20026;-74
2021/11/20 03:20:58;;;;;;;101.97;96.07;;;;;;;;;;4994931;28;20026;-73
2021/11/20 03:23:26;;;;;;;93.75;88.13;;;;;;;;;;4993861;28;20117;-74
2021/11/20 03:25:53;;;;;;;91.88;86.68;;;;;;;;;;4989122;28;20085;-74
2021/11/20 03:28:19;;;;;;;96.55;91.03;;;;;;;;;;4990959;28;20034;-74
2021/11/20 03:30:46;;;;;;;94.72;89.38;;;;;;;;;;4993496;28;20026;-74
2021/11/20 03:33:12;;;;;;;94.78;89.22;;;;;;;;;;4995558;28;20088;-74
2021/11/20 03:35:38;;;;;;;95.90;90.18;;;;;;;;;;4979369;28;20073;-74
2021/11/20 03:38:05;;;;;;;91.68;86.47;;;;;;;;;;4994305;28;20102;-74
2021/11/20 03:40:31;;;;;;;92.57;87.07;;;;;;;;;;4979585;28;20130;-74
2021/11/20 03:42:57;;;;;;;91.38;86.13;;;;;;;;;;5000215;28;20033;-74
2021/11/20 03:45:26;;;;;;;94.22;88.65;;;;;;;;;;4996079;28;20100;-74
2021/11/20 03:47:52;;;;;;;93.43;88.18;;;;;;;;;;4997564;28;20014;-74
2021/11/20 03:50:18;;;;;;;95.00;89.63;;;;;;;;;;4998613;28;20026;-74
2021/11/20 03:52:44;;;;;;;89.82;84.78;;;;;;;;;;5000467;28;20080;-74
2021/11/20 03:55:13;;;;;;;93.65;88.45;;;;;;;;;;4993869;28;20030;-74
2021/11/20 03:57:39;;;;;;;92.35;86.95;;;;;;;;;;4996229;28;20030;-74
2021/11/20 04:00:08;;;;;;;91.70;86.78;;;;;;;;;;4996667;28;20110;-74
2021/11/20 04:02:34;;;;;;;88.85;83.75;;;;;;;;;;4998159;28;20103;-74
2021/11/20 04:05:00;;;;;;;85.55;80.57;;;;;;;;;;4993210;28;20023;-74
2021/11/20 04:07:26;;;;;;;91.00;85.85;;;;;;;;;;4988307;28;20034;-74
2021/11/20 04:09:52;;;;;;;89.22;84.05;;;;;;;;;;4997066;28;20027;-74
2021/11/20 04:12:18;;;;;;;100.15;94.57;;;;;;;;;;4996348;28;20116;-74
2021/11/20 04:14:44;;;;;;;97.20;91.80;;;;;;;;;;4993334;28;20718;-74
2021/11/20 04:17:11;;;;;;;96.78;91.47;;;;;;;;;;4993661;28;20076;-74
2021/11/20 04:19:37;;;;;;;95.22;89.88;;;;;;;;;;4973766;28;20034;-74
2021/11/20 04:22:04;;;;;;;96.80;91.10;;;;;;;;;;4992603;28;20026;-74
2021/11/20 04:24:30;;;;;;;92.30;87.03;;;;;;;;;;4975630;28;20137;-74
2021/11/20 04:26:57;;;;;;;92.38;87.07;;;;;;;;;;4976082;28;20093;-74
2021/11/20 04:29:23;;;;;;;93.85;88.38;;;;;;;;;;4992750;28;20054;-74
2021/11/20 04:31:49;;;;;;;96.78;91.15;;;;;;;;;;4994343;28;20023;-74
2021/11/20 04:34:16;;;;;;;95.35;89.90;;;;;;;;;;4995564;28;20081;-74
2021/11/20 04:36:43;;;;;;;97.40;91.72;;;;;;;;;;4993899;28;20030;-74
2021/11/20 04:39:09;;;;;;;96.43;90.53;;;;;;;;;;4976790;28;20019;-74
2021/11/20 04:41:36;;;;;;;96.68;90.70;;;;;;;;;;4996707;28;20034;-74
2021/11/20 04:44:03;;;;;;;94.80;88.65;;;;;;;;;;4991549;28;20030;-74
2021/11/20 04:46:29;;;;;;;99.07;92.75;;;;;;;;;;4994079;28;20499;-74
2021/11/20 04:48:55;;;;;;;96.82;90.68;;;;;;;;;;4979469;28;20605;-74
2021/11/20 04:51:23;;;;;;;100.03;93.45;;;;;;;;;;4982557;28;20035;-74
2021/11/20 04:53:49;;;;;;;97.38;91.10;;;;;;;;;;4992239;28;20022;-74
2021/11/20 04:56:16;;;;;;;98.82;92.28;;;;;;;;;;4992555;28;20114;-74
2021/11/20 04:58:42;;;;;;;100.95;94.18;;;;;;;;;;4991337;28;20032;-77
2021/11/20 05:01:08;;;;;;;103.50;96.80;;;;;;;;;;4992977;28;20023;-75
2021/11/20 05:03:35;;;;;;;103.53;96.75;;;;;;;;;;4992838;28;20092;-74
2021/11/20 05:06:02;;;;;;;101.32;94.25;;;;;;;;;;4986987;28;20499;-74
2021/11/20 05:08:28;;;;;;;108.05;100.57;;;;;;;;;;4980273;28;20026;-74
2021/11/20 05:10:55;;;;;;;101.03;94.20;;;;;;;;;;4992081;28;20030;-74
2021/11/20 05:13:22;;;;;;;103.80;96.55;;;;;;;;;;4997319;28;20664;-74
2021/11/20 05:15:49;;;;;;;104.05;96.50;;;;;;;;;;4990264;28;20495;-74
2021/11/20 05:18:15;;;;;;;104.80;97.18;;;;;;;;;;4996067;28;20022;-74
2021/11/20 05:20:42;;;;;;;99.38;92.10;;;;;;;;;;4993737;28;20113;-74
2021/11/20 05:23:08;;;;;;;109.93;101.65;;;;;;;;;;4976385;28;20032;-75
2021/11/20 05:25:34;;;;;;;113.72;104.50;;;;;;;;;;4997263;28;20034;-74
2021/11/20 05:28:00;;;;;;;117.28;107.88;;;;;;;;;;4992146;28;20046;-74
2021/11/20 05:30:36;;;;;;;122.38;113.13;;;;;;;;;;4990587;28;20636;-74
2021/11/20 05:33:03;;;;;;;115.60;105.65;;;;;;;;;;5002309;28;20483;-74
2021/11/20 05:35:30;;;;;;;117.13;106.95;;;;;;;;;;4994315;28;20491;-74
2021/11/20 05:37:57;;;;;;;121.72;111.22;;;;;;;;;;4990620;28;20030;-74
2021/11/20 05:40:23;;;;;;;118.70;108.22;;;;;;;;;;4992500;28;20144;-74
2021/11/20 05:42:51;;;;;;;112.78;102.72;;;;;;;;;;4991266;28;20033;-74
2021/11/20 05:45:19;;;;;;;112.47;102.65;;;;;;;;;;4978210;28;20030;-75
2021/11/20 05:47:46;;;;;;;117.55;107.15;;;;;;;;;;4989935;28;20033;-74
2021/11/20 05:50:12;;;;;;;111.00;101.28;;;;;;;;;;4997917;28;20034;-74
2021/11/20 05:52:38;;;;;;;113.82;104.35;;;;;;;;;;4995134;28;20100;-74
2021/11/20 05:55:06;;;;;;;110.55;101.63;;;;;;;;;;4990972;28;20026;-74
2021/11/20 05:57:32;;;;;;;110.20;101.13;;;;;;;;;;4994622;28;20544;-74
2021/11/20 05:59:58;;;;;;;109.32;100.40;;;;;;;;;;4991424;28;20030;-74
2021/11/20 06:02:24;;;;;;;106.18;97.50;;;;;;;;;;4990948;28;20181;-74
2021/11/20 06:04:50;;;;;;;110.40;101.60;;;;;;;;;;4990266;28;20027;-74
2021/11/20 06:07:16;;;;;;;108.13;99.65;;;;;;;;;;4995066;28;20517;-74
2021/11/20 06:09:43;;;;;;;106.47;97.72;;;;;;;;;;5004468;28;20536;-74
2021/11/20 06:12:10;;;;;;;107.78;99.40;;;;;;;;;;4993389;28;20505;-74
2021/11/20 06:14:36;;;;;;;104.65;96.07;;;;;;;;;;4974526;28;20403;-74
2021/11/20 06:17:02;;;;;;;104.05;95.78;;;;;;;;;;4990280;28;20035;-74
2021/11/20 06:19:28;;;;;;;103.65;95.15;;;;;;;;;;4989891;28;20025;-74
2021/11/20 06:21:54;;;;;;;108.22;99.60;;;;;;;;;;4991032;28;20058;-74
2021/11/20 06:24:21;;;;;;;108.63;99.88;;;;;;;;;;4990395;28;20081;-74
2021/11/20 06:26:47;;;;;;;109.13;100.43;;;;;;;;;;4990446;28;20121;-75
2021/11/20 06:29:13;;;;;;;112.43;103.20;;;;;;;;;;4988909;28;20026;-73
2021/11/20 06:31:40;;;;;;;108.75;100.10;;;;;;;;;;4989659;28;20073;-74
2021/11/20 06:34:06;;;;;;;110.60;101.88;;;;;;;;;;4989846;28;20046;-74
2021/11/20 06:36:32;;;;;;;109.35;101.25;;;;;;;;;;4990280;28;20061;-74
2021/11/20 06:38:58;;;;;;;109.30;100.80;;;;;;;;;;4990516;28;20033;-74
2021/11/20 06:41:24;;;;;;;111.30;102.80;;;;;;;;;;4983300;28;20049;-74
2021/11/20 06:43:50;;;;;;;105.95;98.15;;;;;;;;;;4975073;28;20038;-74
2021/11/20 06:46:16;;;;;;;106.15;98.18;;;;;;;;;;4996087;28;20481;-74
2021/11/20 06:48:43;;;;;;;101.32;94.00;;;;;;;;;;4991319;28;20052;-74
2021/11/20 06:51:10;;;;;;;105.72;97.97;;;;;;;;;;4993105;28;20029;-74
2021/11/20 06:53:37;;;;;;;104.30;96.25;;;;;;;;;;4993869;28;20027;-74
2021/11/20 06:56:03;;;;;;;106.97;99.60;;;;;;;;;;4993906;28;20027;-71
2021/11/20 06:58:52;;;;;;;107.10;99.68;;;;;;;;;;4980796;28;20084;-72
2021/11/20 07:01:19;;;;;;;97.05;90.18;;;;;;;;;;4990650;28;20140;-72
2021/11/20 07:03:48;;;;;;;105.63;98.43;;;;;;;;;;4993566;28;20070;-71
2021/11/20 07:06:19;;;;;;;107.10;99.50;;;;;;;;;;4996690;28;20030;-72
2021/11/20 07:08:46;;;;;;;103.50;96.03;;;;;;;;;;4992504;28;20031;-71
2021/11/20 07:11:12;;;;;;;96.50;89.65;;;;;;;;;;4993346;28;20081;-72
2021/11/20 07:13:38;;;;;;;104.47;96.78;;;;;;;;;;5009908;28;20058;-72
2021/11/20 07:16:05;;;;;;;95.43;88.95;;;;;;;;;;4992637;28;20042;-72
2021/11/20 07:18:32;;;;;;;101.80;94.50;;;;;;;;;;4992431;28;20023;-72
2021/11/20 07:20:58;;;;;;;99.10;92.30;;;;;;;;;;5000248;28;20569;-72
2021/11/20 07:23:28;;;;;;;99.18;92.15;;;;;;;;;;5066108;23;20038;-71
2021/11/20 07:25:54;;;;;;;105.85;97.72;;;;;;;;;;4997684;28;20078;-72
2021/11/20 07:28:20;;;;;;;107.97;99.97;;;;;;;;;;4980506;28;20041;-72
2021/11/20 07:30:46;;;;;;;108.35;99.90;;;;;;;;;;4994576;28;20026;-72
2021/11/20 07:33:12;;;;;;;110.90;102.15;;;;;;;;;;4998911;28;20057;-72
2021/11/20 07:35:44;;;;;;;109.65;100.38;;;;;;;;;;4984332;28;20023;-72
2021/11/20 07:38:12;;;;;;;105.57;96.78;;;;;;;;;;4978081;28;20049;-72
2021/11/20 07:40:39;;;;;;;105.35;96.45;;;;;;;;;;4992796;28;20030;-72
2021/11/20 07:43:06;;;;;;;102.45;94.15;;;;;;;;;;4997745;28;20249;-72
2021/11/20 07:45:32;;;;;;;104.47;95.53;;;;;;;;;;4992661;28;20466;-72
2021/11/20 07:48:02;;;;;;;100.35;92.00;;;;;;;;;;4983382;28;20448;-72
2021/11/20 07:50:28;;;;;;;100.07;91.38;;;;;;;;;;4999252;28;20088;-74
2021/11/20 07:52:54;;;;;;;99.82;91.40;;;;;;;;;;4982023;28;20041;-74
2021/11/20 07:55:21;;;;;;;103.85;95.18;;;;;;;;;;4997739;28;20022;-74
2021/11/20 07:57:47;;;;;;;103.05;94.57;;;;;;;;;;4996907;28;20504;-73
2021/11/20 08:00:15;;;;;;;104.88;95.97;;;;;;;;;;4990856;28;20037;-74
2021/11/20 08:02:42;;;;;;;104.85;95.82;;;;;;;;;;4994250;28;20041;-75
2021/11/20 08:05:08;;;;;;;90.57;82.55;;;;;;;;;;4984609;28;20022;-74
2021/11/20 08:07:36;;;;;;;94.32;85.75;;;;;;;;;;4999992;28;20031;-75
2021/11/20 08:10:04;;;;;;;91.85;83.68;;;;;;;;;;4980994;28;20029;-74
2021/11/20 08:12:30;;;;;;;89.53;80.53;;;;;;;;;;4993401;28;20031;-74
2021/11/20 08:14:56;;;;;;;92.15;83.30;;;;;;;;;;4980256;28;20085;-75
2021/11/20 08:17:22;;;;;;;95.75;87.22;;;;;;;;;;4991936;28;21665;-74
2021/11/20 08:19:48;;;;;;;91.25;83.35;;;;;;;;;;4979491;28;20105;-74
2021/11/20 08:22:14;;;;;;;98.00;89.15;;;;;;;;;;4994134;28;20134;-74
2021/11/20 08:24:40;;;;;;;88.82;80.40;;;;;;;;;;4996783;28;20038;-74
2021/11/20 08:27:09;;;;;;;89.50;81.22;;;;;;;;;;4999587;28;20033;-75
2021/11/20 08:29:37;;;;;;;87.38;79.38;;;;;;;;;;4992771;28;20026;-75
2021/11/20 08:32:05;;;;;;;85.93;78.00;;;;;;;;;;4993024;28;20076;-75
2021/11/20 08:34:31;;;;;;;82.30;74.63;;;;;;;;;;4999573;28;20026;-74
2021/11/20 08:36:59;;;;;;;82.40;74.90;;;;;;;;;;4981633;28;20022;-72
2021/11/20 08:39:28;;;;;;;84.53;76.30;;;;;;;;;;5005186;28;20420;-76
2021/11/20 08:41:54;;;;;;;76.00;68.57;;;;;;;;;;4996072;28;20023;-75
2021/11/20 08:44:20;;;;;;;78.68;71.43;;;;;;;;;;4979451;28;20557;-74
2021/11/20 08:46:47;;;;;;;83.10;74.95;;;;;;;;;;4991857;28;20032;-74
2021/11/20 08:49:13;;;;;;;79.50;71.97;;;;;;;;;;4972553;28;20038;-75
2021/11/20 08:51:39;;;;;;;83.85;76.28;;;;;;;;;;4988499;28;20035;-74
2021/11/20 08:54:06;;;;;;;85.22;77.45;;;;;;;;;;4991477;28;20046;-74
2021/11/20 08:56:32;;;;;;;75.88;68.88;;;;;;;;;;4991858;28;20037;-74
2021/11/20 08:58:59;;;;;;;84.60;76.80;;;;;;;;;;4988023;28;20551;-74
2021/11/20 09:01:27;;;;;;;85.65;77.47;;;;;;;;;;4991232;28;20031;-73
2021/11/20 09:03:59;;;;;;;85.22;77.80;;;;;;;;;;4979209;28;20448;-73
2021/11/20 09:06:25;;;;;;;83.57;76.28;;;;;;;;;;4991954;28;20080;-73
2021/11/20 09:08:57;;;;;;;87.30;79.40;;;;;;;;;;4978547;28;20057;-72
2021/11/20 09:11:26;;;;;;;86.63;79.05;;;;;;;;;;4989623;28;20168;-72
2021/11/20 09:13:58;;;;;;;84.93;77.47;;;;;;;;;;4998216;28;20528;-72
2021/11/20 09:16:25;;;;;;;82.05;74.82;;;;;;;;;;4986846;28;20950;-71
2021/11/20 09:18:52;;;;;;;80.38;73.57;;;;;;;;;;4988601;28;20389;-71
2021/11/20 09:21:18;;;;;;;83.97;77.05;;;;;;;;;;4974305;28;20783;-74
2021/11/20 09:23:45;;;;;;;80.80;73.70;;;;;;;;;;4988940;28;20559;-74
2021/11/20 09:26:11;;;;;;;80.30;73.80;;;;;;;;;;4990070;28;20073;-74
2021/11/20 09:28:37;;;;;;;79.95;73.07;;;;;;;;;;4985248;28;20026;-74
2021/11/20 09:31:04;;;;;;;75.75;69.55;;;;;;;;;;4976350;28;20071;-73
2021/11/20 09:33:30;;;;;;;80.93;74.00;;;;;;;;;;5006752;28;20022;-74
2021/11/20 09:35:56;;;;;;;81.20;74.75;;;;;;;;;;4988767;28;20026;-74
2021/11/20 09:38:24;;;;;;;86.18;79.53;;;;;;;;;;4970905;28;20030;-73
2021/11/20 09:40:52;;;;;;;82.75;76.22;;;;;;;;;;4974404;28;20031;-72
2021/11/20 09:43:21;;;;;;;79.20;72.97;;;;;;;;;;4990239;28;20030;-73
2021/11/20 09:45:51;;;;;;;78.60;72.20;;;;;;;;;;4989187;28;20029;-74
2021/11/20 09:48:20;;;;;;;77.22;70.78;;;;;;;;;;4987401;28;20045;-72
2021/11/20 09:50:46;;;;;;;77.72;71.50;;;;;;;;;;4994664;28;20041;-74
2021/11/20 09:53:13;;;;;;;79.47;73.45;;;;;;;;;;4994175;28;20038;-74
2021/11/20 09:55:45;;;;;;;76.88;70.90;;;;;;;;;;4991074;28;20026;-74
2021/11/20 09:58:17;;;;;;;74.20;68.18;;;;;;;;;;4985868;28;20034;-74
2021/11/20 10:01:05;;;;;;;76.75;70.60;;;;;;;;;;4989893;28;20058;-73
2021/11/20 10:03:35;;;;;;;74.30;68.50;;;;;;;;;;4987129;28;20109;-74
2021/11/20 10:06:09;;;;;;;74.47;68.65;;;;;;;;;;4990719;28;20041;-73
2021/11/20 10:08:38;;;;;;;70.65;65.32;;;;;;;;;;4986879;28;20117;-73
2021/11/20 10:11:10;;;;;;;75.65;69.53;;;;;;;;;;4972326;28;20026;-74
2021/11/20 10:13:50;;;;;;;69.57;63.83;;;;;;;;;;4989528;28;20525;-73
2021/11/20 10:16:20;;;;;;;71.10;65.28;;;;;;;;;;4990493;28;20035;-74
2021/11/20 10:18:53;;;;;;;68.68;63.58;;;;;;;;;;4987290;28;20385;-73
2021/11/20 10:21:27;;;;;;;74.95;69.20;;;;;;;;;;4990609;28;20034;-74
2021/11/20 10:23:55;;;;;;;74.82;69.22;;;;;;;;;;4969721;28;20042;-74
2021/11/20 10:26:40;;;;;;;73.22;67.85;;;;;;;;;;4989183;28;20037;-74
2021/11/20 10:29:15;;;;;;;74.88;69.07;;;;;;;;;;4970429;28;20205;-73
2021/11/20 10:31:44;;;;;;;71.78;66.60;;;;;;;;;;4989244;28;20030;-74
2021/11/20 10:34:22;;;;;;;63.72;58.72;;;;;;;;;;4989693;28;20054;-74
2021/11/20 10:36:51;;;;;;;71.85;66.32;;;;;;;;;;4988521;28;20030;-73
2021/11/20 10:39:22;;;;;;;71.00;65.72;;;;;;;;;;4982404;28;20393;-73
2021/11/20 10:41:59;;;;;;;73.05;67.57;;;;;;;;;;4989938;28;20027;-72
2021/11/20 10:44:28;;;;;;;74.82;69.18;;;;;;;;;;4988609;28;20035;-72
2021/11/20 10:47:01;;;;;;;68.28;63.25;;;;;;;;;;4989962;28;20038;-73
2021/11/20 10:49:46;;;;;;;71.75;66.53;;;;;;;;;;4987236;28;20493;-73
2021/11/20 10:52:31;;;;;;;72.93;67.60;;;;;;;;;;4992955;28;20022;-73
2021/11/20 10:55:12;;;;;;;75.72;70.22;;;;;;;;;;4989392;28;20030;-72
2021/11/20 10:57:50;;;;;;;71.07;65.73;;;;;;;;;;4986497;28;20026;-73
2021/11/20 11:00:25;;;;;;;71.68;66.35;;;;;;;;;;4977721;28;20272;-73
2021/11/20 11:02:51;;;;;;;73.10;67.82;;;;;;;;;;4986572;28;20496;-73
2021/11/20 11:05:24;;;;;;;75.05;69.38;;;;;;;;;;4971331;28;20026;-73
2021/11/20 11:07:50;;;;;;;73.68;68.32;;;;;;;;;;4986237;28;20110;-73
2021/11/20 11:10:20;;;;;;;73.40;68.10;;;;;;;;;;4989649;28;20033;-72
2021/11/20 11:12:55;;;;;;;77.85;72.05;;;;;;;;;;4988592;28;20026;-73
2021/11/20 11:15:30;;;;;;;71.95;66.63;;;;;;;;;;4989909;28;20022;-73
2021/11/20 11:18:02;;;;;;;67.95;62.97;;;;;;;;;;4961910;28;20281;-73
2021/11/20 11:20:28;;;;;;;67.60;62.50;;;;;;;;;;4989120;28;20100;-73
2021/11/20 11:22:57;;;;;;;66.68;61.78;;;;;;;;;;4992044;28;20548;-72
2021/11/20 11:25:25;;;;;;;69.57;64.38;;;;;;;;;;4994101;28;20050;-73
2021/11/20 11:27:57;;;;;;;70.90;65.90;;;;;;;;;;4997569;28;20271;-72
2021/11/20 11:30:29;;;;;;;66.28;61.45;;;;;;;;;;4993577;28;20050;-73
2021/11/20 11:32:56;;;;;;;65.47;60.47;;;;;;;;;;4995374;28;20061;-72
2021/11/20 11:35:26;;;;;;;65.10;60.35;;;;;;;;;;4994261;28;20401;-73
2021/11/20 11:38:02;;;;;;;67.97;62.45;;;;;;;;;;4987565;28;20272;-72
2021/11/20 11:40:53;;;;;;;72.13;66.72;;;;;;;;;;4993570;28;20026;-73
2021/11/20 11:43:40;;;;;;;75.03;69.50;;;;;;;;;;4986138;28;20050;-72
2021/11/20 11:46:18;;;;;;;69.60;64.85;;;;;;;;;;4991963;28;20034;-72
2021/11/20 11:48:51;;;;;;;69.15;63.92;;;;;;;;;;4988832;28;20030;-73
2021/11/20 11:51:30;;;;;;;67.82;63.00;;;;;;;;;;4989226;28;20034;-72
2021/11/20 11:53:56;;;;;;;66.65;61.55;;;;;;;;;;4986156;28;20102;-73
2021/11/20 11:56:28;;;;;;;64.60;59.70;;;;;;;;;;4975787;28;20041;-73
2021/11/20 11:59:12;;;;;;;63.28;58.58;;;;;;;;;;4983767;28;20022;-72
2021/11/20 12:01:39;;;;;;;63.55;58.75;;;;;;;;;;4989860;28;20034;-74
2021/11/20 12:04:10;;;;;;;61.08;56.15;;;;;;;;;;4996299;28;20056;-73
2021/11/20 12:06:41;;;;;;;70.78;65.50;;;;;;;;;;4994367;28;20038;-73
2021/11/20 12:09:23;;;;;;;70.32;65.10;;;;;;;;;;4989943;28;20042;-72
2021/11/20 12:11:50;;;;;;;72.70;67.13;;;;;;;;;;4989671;28;20045;-72
2021/11/20 12:14:19;;;;;;;69.82;64.47;;;;;;;;;;4993932;28;20217;-72
2021/11/20 12:16:56;;;;;;;70.95;65.50;;;;;;;;;;4992252;28;20026;-72
2021/11/20 12:19:28;;;;;;;65.57;60.58;;;;;;;;;;4971991;28;20050;-72
2021/11/20 12:22:01;;;;;;;61.63;56.42;;;;;;;;;;4988785;28;20477;-72
2021/11/20 12:24:46;;;;;;;62.40;57.03;;;;;;;;;;4991683;28;20058;-71
2021/11/20 12:27:33;;;;;;;61.80;56.33;;;;;;;;;;4975929;28;20081;-72
2021/11/20 12:30:08;;;;;;;60.72;55.45;;;;;;;;;;4987555;28;20385;-72
2021/11/20 12:32:54;;;;;;;68.68;60.90;;;;;;;;;;4992311;28;20022;-71
2021/11/20 12:35:24;;;;;;;62.70;57.08;;;;;;;;;;4992256;28;20440;-72
2021/11/20 12:38:04;;;;;;;63.08;57.53;;;;;;;;;;4987746;28;20525;-72
2021/11/20 12:40:33;;;;;;;66.18;60.53;;;;;;;;;;4975261;28;20104;-73
2021/11/20 12:43:03;;;;;;;61.65;56.35;;;;;;;;;;4991391;28;20037;-72
2021/11/20 12:45:47;;;;;;;66.13;59.92;;;;;;;;;;4991985;28;20114;-71
2021/11/20 12:48:36;;;;;;;66.30;60.00;;;;;;;;;;4989241;28;20405;-71
2021/11/20 12:51:05;;;;;;;62.40;57.10;;;;;;;;;;4988910;28;20390;-72
2021/11/20 12:53:36;;;;;;;63.65;58.13;;;;;;;;;;4991126;28;20033;-71
2021/11/20 12:56:20;;;;;;;61.75;56.30;;;;;;;;;;4992578;28;20055;-71
2021/11/20 12:58:48;;;;;;;64.47;58.15;;;;;;;;;;4987660;28;20062;-71
2021/11/20 13:01:17;;;;;;;66.40;60.65;;;;;;;;;;4991552;28;20106;-72
2021/11/20 13:03:44;;;;;;;69.20;62.42;;;;;;;;;;4990923;28;20472;-73
2021/11/20 13:06:23;;;;;;;69.68;63.78;;;;;;;;;;4994629;28;20069;-73
2021/11/20 13:08:51;;;;;;;64.95;58.67;;;;;;;;;;4994302;28;20058;-72
2021/11/20 13:11:27;;;;;;;64.65;58.70;;;;;;;;;;5006740;28;20034;-72
2021/11/20 13:14:07;;;;;;;69.70;63.55;;;;;;;;;;4989938;28;20023;-73
2021/11/20 13:16:52;;;;;;;69.65;62.90;;;;;;;;;;4995442;28;20026;-72
2021/11/20 13:19:24;;;;;;;70.10;63.50;;;;;;;;;;4976439;28;20088;-74
2021/11/20 13:21:53;;;;;;;66.72;60.15;;;;;;;;;;4986698;28;20056;-72
2021/11/20 13:24:20;;;;;;;67.78;61.05;;;;;;;;;;4990872;28;20093;-72
2021/11/20 13:27:03;;;;;;;65.75;59.67;;;;;;;;;;4991752;28;20038;-72
2021/11/20 13:29:35;;;;;;;63.97;57.95;;;;;;;;;;4971650;28;20018;-73
2021/11/20 13:32:03;;;;;;;66.57;60.28;;;;;;;;;;4997639;28;20034;-72
2021/11/20 13:34:29;;;;;;;66.70;60.20;;;;;;;;;;4990674;28;20026;-72
2021/11/20 13:36:55;;;;;;;70.57;63.80;;;;;;;;;;4977138;28;20243;-72
2021/11/20 13:39:21;;;;;;;67.80;61.20;;;;;;;;;;4974915;28;20029;-73
2021/11/20 13:42:00;;;;;;;67.60;60.95;;;;;;;;;;4994583;28;20025;-72
2021/11/20 13:44:27;;;;;;;68.97;62.28;;;;;;;;;;4972592;28;20030;-73
2021/11/20 13:46:53;;;;;;;72.40;65.80;;;;;;;;;;4975328;28;20033;-72
2021/11/20 13:49:20;;;;;;;72.07;64.95;;;;;;;;;;4988160;28;20033;-72
2021/11/20 13:51:46;;;;;;;66.38;59.80;;;;;;;;;;4977683;28;20093;-72
2021/11/20 13:54:13;;;;;;;68.45;61.38;;;;;;;;;;4973322;28;20042;-72
2021/11/20 13:56:40;;;;;;;68.63;61.85;;;;;;;;;;4990762;28;20033;-73
2021/11/20 13:59:08;;;;;;;74.97;67.38;;;;;;;;;;4969844;28;20196;-72
2021/11/20 14:01:46;;;;;;;71.45;64.43;;;;;;;;;;4997548;28;20031;-69
2021/11/20 14:04:12;;;;;;;68.30;61.15;;;;;;;;;;4994514;28;20027;-72
2021/11/20 14:06:40;;;;;;;70.93;63.92;;;;;;;;;;4997243;28;20030;-71
2021/11/20 14:09:14;;;;;;;71.38;64.35;;;;;;;;;;4978552;28;20497;-71
2021/11/20 14:11:49;;;;;;;68.10;61.15;;;;;;;;;;4990139;28;20382;-71
2021/11/20 14:14:19;;;;;;;67.85;60.53;;;;;;;;;;4983656;28;20413;-71
2021/11/20 14:16:45;;;;;;;68.13;60.30;;;;;;;;;;4989940;28;20463;-71
2021/11/20 14:19:11;;;;;;;64.03;57.40;;;;;;;;;;4988722;28;20029;-72